createdAt,value
2018-09-04T00:02:07.929Z,67.75
2018-09-04T00:04:36.965Z,67.68
2018-09-04T00:07:06.283Z,67.84
2018-09-04T00:09:35.346Z,67.94
2018-09-04T00:12:04.440Z,68.32
2018-09-04T00:14:33.529Z,68.59
2018-09-04T00:17:02.654Z,68.90
2018-09-04T00:19:31.648Z,69.07
2018-09-04T00:22:00.681Z,69.35
2018-09-04T00:24:29.694Z,69.50
2018-09-04T00:26:58.758Z,69.57
2018-09-04T00:29:27.771Z,69.67
2018-09-04T00:31:56.803Z,69.59
2018-09-04T00:34:25.959Z,69.74
2018-09-04T00:36:56.972Z,69.43
2018-09-04T00:39:25.989Z,69.44
2018-09-04T00:41:55.011Z,69.52
2018-09-04T00:44:24.049Z,69.46
2018-09-04T00:46:53.071Z,69.25
2018-09-04T00:49:22.061Z,69.00
2018-09-04T00:51:51.174Z,68.75
2018-09-04T00:54:20.188Z,68.66
2018-09-04T00:56:49.409Z,68.49
2018-09-04T00:59:18.426Z,68.33
2018-09-04T01:01:47.516Z,68.23
2018-09-04T01:04:16.749Z,68.23
2018-09-04T01:06:45.785Z,68.01
2018-09-04T01:09:23.542Z,67.93
2018-09-04T01:11:53.273Z,67.88
2018-09-04T01:14:22.314Z,67.72
2018-09-04T01:16:51.370Z,67.76
2018-09-04T01:19:20.572Z,67.62
2018-09-04T01:21:49.596Z,67.77
2018-09-04T01:24:18.732Z,68.00
2018-09-04T01:26:47.774Z,67.93
2018-09-04T01:29:16.965Z,67.80
2018-09-04T01:31:45.935Z,67.64
2018-09-04T01:34:14.952Z,67.36
2018-09-04T01:36:44.019Z,67.08
2018-09-04T01:39:13.093Z,66.96
2018-09-04T01:41:48.741Z,66.81
2018-09-04T01:44:17.846Z,66.66
2018-09-04T01:46:46.985Z,66.48
2018-09-04T01:49:16.010Z,66.28
2018-09-04T01:51:45.005Z,66.05
2018-09-04T01:54:13.996Z,65.98
2018-09-04T01:56:43.112Z,65.82
2018-09-04T01:59:12.084Z,65.70
2018-09-04T02:01:41.088Z,65.59
2018-09-04T02:04:10.096Z,65.36
2018-09-04T02:06:39.096Z,65.33
2018-09-04T02:09:08.564Z,65.18
2018-09-04T02:11:38.744Z,65.06
2018-09-04T02:14:07.800Z,65.12
2018-09-04T02:16:36.882Z,65.08
2018-09-04T02:19:06.324Z,65.11
2018-09-04T02:21:35.337Z,64.64
2018-09-04T02:24:04.335Z,64.36
2018-09-04T02:26:33.289Z,64.52
2018-09-04T02:29:02.336Z,64.44
2018-09-04T02:31:31.329Z,64.39
2018-09-04T02:34:00.326Z,64.18
2018-09-04T02:36:29.384Z,63.95
2018-09-04T02:38:59.771Z,63.86
2018-09-04T02:41:28.809Z,63.33
2018-09-04T02:43:58.309Z,63.64
2018-09-04T02:46:27.310Z,63.74
2018-09-04T02:48:56.379Z,63.65
2018-09-04T02:51:25.368Z,63.56
2018-09-04T02:53:54.729Z,63.62
2018-09-04T02:56:23.722Z,63.62
2018-09-04T02:58:52.799Z,63.34
2018-09-04T03:01:21.896Z,63.63
2018-09-04T03:03:50.970Z,63.90
2018-09-04T03:06:20.700Z,63.72
2018-09-04T03:08:49.721Z,63.91
2018-09-04T03:11:18.717Z,63.81
2018-09-04T03:13:47.895Z,63.73
2018-09-04T03:16:17.489Z,63.74
2018-09-04T03:18:46.482Z,63.52
2018-09-04T03:21:15.459Z,63.68
2018-09-04T03:23:44.429Z,63.75
2018-09-04T03:26:13.853Z,63.69
2018-09-04T03:28:42.826Z,63.66
2018-09-04T03:31:11.859Z,63.84
2018-09-04T03:33:41.447Z,63.81
2018-09-04T03:36:10.502Z,63.92
2018-09-04T03:38:39.491Z,63.84
2018-09-04T03:41:08.524Z,63.84
2018-09-04T03:43:37.536Z,63.97
2018-09-04T03:46:07.316Z,63.93
2018-09-04T03:48:36.500Z,64.13
2018-09-04T03:51:05.613Z,64.03
2018-09-04T03:53:34.601Z,64.12
2018-09-04T03:56:03.678Z,64.02
2018-09-04T03:58:32.638Z,63.98
2018-09-04T04:01:01.758Z,64.12
2018-09-04T04:03:30.732Z,63.96
2018-09-04T04:05:59.811Z,63.95
2018-09-04T04:08:28.784Z,63.98
2018-09-04T04:10:57.936Z,63.94
2018-09-04T04:13:27.060Z,63.87
2018-09-04T04:15:56.054Z,63.90
2018-09-04T04:18:25.123Z,63.92
2018-09-04T04:20:58.205Z,64.03
2018-09-04T04:23:28.096Z,64.06
2018-09-04T04:25:58.446Z,64.12
2018-09-04T04:28:27.440Z,64.21
2018-09-04T04:30:56.462Z,64.39
2018-09-04T04:33:25.437Z,64.41
2018-09-04T04:35:54.449Z,64.39
2018-09-04T04:38:23.479Z,64.54
2018-09-04T04:40:53.548Z,64.50
2018-09-04T04:43:22.514Z,64.58
2018-09-04T04:45:51.567Z,64.69
2018-09-04T04:48:20.768Z,64.82
2018-09-04T04:50:49.721Z,64.90
2018-09-04T04:53:18.916Z,65.04
2018-09-04T04:55:47.972Z,65.12
2018-09-04T04:58:17.314Z,65.33
2018-09-04T05:00:47.310Z,65.28
2018-09-04T05:03:16.312Z,65.30
2018-09-04T05:05:45.449Z,65.20
2018-09-04T05:08:15.329Z,65.06
2018-09-04T05:10:44.355Z,64.67
2018-09-04T05:13:13.500Z,64.79
2018-09-04T05:15:42.579Z,64.65
2018-09-04T05:18:11.718Z,64.55
2018-09-04T05:20:40.828Z,64.52
2018-09-04T05:23:09.910Z,64.41
2018-09-04T05:25:38.987Z,64.45
2018-09-04T05:28:08.023Z,64.57
2018-09-04T05:30:37.326Z,64.76
2018-09-04T05:33:12.592Z,64.87
2018-09-04T05:35:44.992Z,64.78
2018-09-04T05:38:14.108Z,64.64
2018-09-04T05:40:43.550Z,64.79
2018-09-04T05:43:16.979Z,64.66
2018-09-04T05:45:46.182Z,64.79
2018-09-04T05:48:16.496Z,64.84
2018-09-04T05:50:45.512Z,64.92
2018-09-04T05:53:16.911Z,64.86
2018-09-04T05:55:46.077Z,64.98
2018-09-04T05:58:16.660Z,65.01
2018-09-04T06:00:48.577Z,65.17
2018-09-04T06:03:18.926Z,65.38
2018-09-04T06:05:47.915Z,65.32
2018-09-04T06:08:16.937Z,65.29
2018-09-04T06:10:47.150Z,65.34
2018-09-04T06:13:16.204Z,65.11
2018-09-04T06:15:45.232Z,65.09
2018-09-04T06:18:14.322Z,65.04
2018-09-04T06:20:43.605Z,64.96
2018-09-04T06:23:12.620Z,64.64
2018-09-04T06:25:41.714Z,64.71
2018-09-04T06:28:10.730Z,64.63
2018-09-04T06:30:41.558Z,64.78
2018-09-04T06:33:10.540Z,64.38
2018-09-04T06:35:39.592Z,64.25
2018-09-04T06:38:08.612Z,64.02
2018-09-04T06:40:38.685Z,63.55
2018-09-04T06:43:07.733Z,62.77
2018-09-04T06:45:36.821Z,61.72
2018-09-04T06:48:05.939Z,60.91
2018-09-04T06:50:35.163Z,60.19
2018-09-04T06:53:04.256Z,59.22
2018-09-04T06:55:33.307Z,58.28
2018-09-04T06:58:02.384Z,57.52
2018-09-04T07:00:31.480Z,56.47
2018-09-04T07:03:13.333Z,55.43
2018-09-04T07:05:43.208Z,54.49
2018-09-04T07:08:12.303Z,53.79
2018-09-04T07:10:41.808Z,53.41
2018-09-04T07:13:10.904Z,53.58
2018-09-04T07:15:40.358Z,53.56
2018-09-04T07:18:09.397Z,53.76
2018-09-04T07:20:38.459Z,53.77
2018-09-04T07:23:08.362Z,54.18
2018-09-04T07:25:37.381Z,55.21
2018-09-04T07:28:06.562Z,55.91
2018-09-04T07:30:35.653Z,56.27
2018-09-04T07:33:05.564Z,56.52
2018-09-04T07:35:34.542Z,57.10
2018-09-04T07:38:03.650Z,57.52
2018-09-04T07:40:32.724Z,57.68
2018-09-04T07:43:02.239Z,57.92
2018-09-04T07:45:31.526Z,58.24
2018-09-04T07:48:34.715Z,58.32
2018-09-04T07:51:03.754Z,58.33
2018-09-04T07:53:32.831Z,58.16
2018-09-04T07:56:09.084Z,58.52
2018-09-04T07:58:40.483Z,58.47
2018-09-04T08:01:09.570Z,58.01
2018-09-04T08:03:39.509Z,57.71
2018-09-04T08:13:45.957Z,56.66
2018-09-04T08:16:15.072Z,55.40
2018-09-04T08:18:45.351Z,55.47
2018-09-04T08:21:14.654Z,55.45
2018-09-04T08:23:43.842Z,56.03
2018-09-04T08:26:13.341Z,56.14
2018-09-04T08:28:43.459Z,56.36
2018-09-04T08:31:12.475Z,56.67
2018-09-04T08:33:41.755Z,57.24
2018-09-04T08:36:11.112Z,57.45
2018-09-04T08:38:45.296Z,57.67
2018-09-04T08:41:14.538Z,57.99
2018-09-04T08:43:43.883Z,58.31
2018-09-04T08:46:13.911Z,58.25
2018-09-04T08:48:43.102Z,58.35
2018-09-04T08:51:12.196Z,58.44
2018-09-04T08:56:40.796Z,58.45
2018-09-04T08:59:19.606Z,58.73
2018-09-04T09:01:48.921Z,58.71
2018-09-04T09:04:19.075Z,58.71
2018-09-04T09:06:48.110Z,58.51
2018-09-04T09:09:17.322Z,58.53
2018-09-04T09:11:46.584Z,58.47
2018-09-04T09:14:15.757Z,58.51
2018-09-04T09:16:45.447Z,58.58
2018-09-04T09:19:14.945Z,58.73
2018-09-04T09:21:44.080Z,58.85
2018-09-04T09:24:13.226Z,58.64
2018-09-04T09:26:43.017Z,58.64
2018-09-04T09:29:12.146Z,58.54
2018-09-04T09:31:41.975Z,58.35
2018-09-04T09:34:12.404Z,58.55
2018-09-04T09:36:44.618Z,58.74
2018-09-04T09:39:28.366Z,58.65
2018-09-04T09:45:01.220Z,58.51
2018-09-04T09:47:31.519Z,58.45
2018-09-04T09:50:01.323Z,58.63
2018-09-04T09:52:32.351Z,58.72
2018-09-04T09:57:30.821Z,58.37
2018-09-04T10:00:00.768Z,58.21
2018-09-04T10:02:35.727Z,58.48
2018-09-04T10:05:05.238Z,58.26
2018-09-04T10:07:35.113Z,58.51
2018-09-04T10:10:04.106Z,58.58
2018-09-04T10:12:50.585Z,58.31
2018-09-04T10:15:23.823Z,58.41
2018-09-04T10:17:59.597Z,58.37
2018-09-04T10:20:35.683Z,58.27
2018-09-04T10:23:06.388Z,58.30
2018-09-04T10:25:38.175Z,58.07
2018-09-04T10:28:08.960Z,58.36
2018-09-04T10:30:38.796Z,58.66
2018-09-04T10:33:10.182Z,58.68
2018-09-04T10:35:40.435Z,58.90
2018-09-04T10:38:09.733Z,59.11
2018-09-04T10:40:39.360Z,58.86
2018-09-04T10:43:08.429Z,58.70
2018-09-04T10:45:42.949Z,58.47
2018-09-04T10:48:14.272Z,58.29
2018-09-04T10:50:43.403Z,57.81
2018-09-04T10:53:12.555Z,58.09
2018-09-04T10:55:41.747Z,57.94
2018-09-04T10:58:12.611Z,57.96
2018-09-04T11:00:42.185Z,57.63
2018-09-04T11:03:11.337Z,57.66
2018-09-04T11:05:40.503Z,57.67
2018-09-04T11:08:09.906Z,57.43
2018-09-04T11:10:39.184Z,57.58
2018-09-04T11:13:08.818Z,57.25
2018-09-04T11:15:37.957Z,57.22
2018-09-04T11:18:07.498Z,57.75
2018-09-04T11:20:36.667Z,57.58
2018-09-04T11:23:07.021Z,57.61
2018-09-04T11:25:37.997Z,57.46
2018-09-04T11:28:08.644Z,57.23
2018-09-04T11:30:43.334Z,57.13
2018-09-04T11:33:15.027Z,57.00
2018-09-04T11:35:46.614Z,56.83
2018-09-04T11:38:24.153Z,56.67
2018-09-04T11:40:54.758Z,56.11
2018-09-04T11:43:24.987Z,55.76
2018-09-04T11:45:54.531Z,55.70
2018-09-04T11:48:43.992Z,55.47
2018-09-04T11:51:13.277Z,55.59
2018-09-04T11:53:42.460Z,55.77
2018-09-04T11:56:11.855Z,55.83
2018-09-04T11:58:41.367Z,55.41
2018-09-04T12:01:13.245Z,55.81
2018-09-04T12:03:43.121Z,55.93
2018-09-04T12:06:14.113Z,55.79
2018-09-04T12:08:44.573Z,55.83
2018-09-04T12:11:17.793Z,55.92
2018-09-04T12:13:47.489Z,55.96
2018-09-04T12:16:48.403Z,56.03
2018-09-04T12:19:17.925Z,55.84
2018-09-04T12:21:47.210Z,55.81
2018-09-04T12:24:16.319Z,56.32
2018-09-04T12:26:45.659Z,56.06
2018-09-04T12:29:14.695Z,56.04
2018-09-04T12:31:43.915Z,55.84
2018-09-04T12:34:13.113Z,56.01
2018-09-04T12:36:43.663Z,56.34
2018-09-04T12:39:13.703Z,55.82
2018-09-04T12:41:42.874Z,55.97
2018-09-04T12:44:12.936Z,55.57
2018-09-04T12:46:42.141Z,56.14
2018-09-04T12:49:11.422Z,56.28
2018-09-04T12:51:40.760Z,56.24
2018-09-04T12:54:10.248Z,56.17
2018-09-04T12:56:40.541Z,55.94
2018-09-04T12:59:13.479Z,56.29
2018-09-04T13:01:47.023Z,55.95
2018-09-04T13:04:16.959Z,56.07
2018-09-04T13:06:46.105Z,56.34
2018-09-04T13:09:22.658Z,56.38
2018-09-04T13:11:52.169Z,56.57
2018-09-04T13:14:21.595Z,56.30
2018-09-04T13:16:50.844Z,56.64
2018-09-04T13:19:20.070Z,56.77
2018-09-04T13:21:50.227Z,56.92
2018-09-04T13:24:19.361Z,56.86
2018-09-04T13:26:48.640Z,56.63
2018-09-04T13:29:17.672Z,56.53
2018-09-04T13:31:46.753Z,56.83
2018-09-04T13:34:16.526Z,56.44
2018-09-04T13:36:45.815Z,56.73
2018-09-04T13:39:14.978Z,56.53
2018-09-04T13:41:45.318Z,56.60
2018-09-04T13:44:14.644Z,56.96
2018-09-04T13:46:44.636Z,56.85
2018-09-04T13:49:14.051Z,57.02
2018-09-04T13:51:43.967Z,56.81
2018-09-04T13:54:13.058Z,56.97
2018-09-04T13:56:42.321Z,57.06
2018-09-04T13:59:11.458Z,57.10
2018-09-04T14:01:41.004Z,57.10
2018-09-04T14:04:10.069Z,57.11
2018-09-04T14:06:41.276Z,57.23
2018-09-04T14:09:13.138Z,57.58
2018-09-04T14:11:42.765Z,57.45
2018-09-04T14:14:12.386Z,57.30
2018-09-04T14:16:43.582Z,57.34
2018-09-04T14:19:11.181Z,57.56
2018-09-04T14:21:40.410Z,57.44
2018-09-04T14:24:16.002Z,57.97
2018-09-04T14:26:46.234Z,58.11
2018-09-04T14:29:53.165Z,58.04
2018-09-04T14:31:44.928Z,57.78
2018-09-04T14:34:14.090Z,57.76
2018-09-04T14:36:43.270Z,58.41
2018-09-04T14:39:12.278Z,58.20
2018-09-04T14:41:41.563Z,57.89
2018-09-04T14:44:11.374Z,57.90
2018-09-04T14:46:41.774Z,57.96
2018-09-04T14:49:10.969Z,57.82
2018-09-04T14:51:42.529Z,57.59
2018-09-04T14:54:12.136Z,57.54
2018-09-04T14:56:42.178Z,57.45
2018-09-04T14:59:12.638Z,57.16
2018-09-04T15:01:42.268Z,57.01
2018-09-04T15:04:11.636Z,57.18
2018-09-04T15:06:40.831Z,57.12
2018-09-04T15:09:09.939Z,57.44
2018-09-04T15:11:40.080Z,57.26
2018-09-04T15:14:09.886Z,57.58
2018-09-04T15:16:39.037Z,57.64
2018-09-04T15:19:08.077Z,57.59
2018-09-04T15:21:37.347Z,57.54
2018-09-04T15:24:06.653Z,57.45
2018-09-04T15:26:35.803Z,57.91
2018-09-04T15:29:04.928Z,57.78
2018-09-04T15:31:38.490Z,57.90
2018-09-04T15:34:07.749Z,57.91
2018-09-04T15:36:36.852Z,57.88
2018-09-04T15:39:06.875Z,57.78
2018-09-04T15:41:37.096Z,57.49
2018-09-04T15:44:06.479Z,57.60
2018-09-04T15:46:35.493Z,57.31
2018-09-04T15:49:09.578Z,56.92
2018-09-04T15:51:38.939Z,57.37
2018-09-04T15:54:07.979Z,57.02
2018-09-04T15:56:37.076Z,57.06
2018-09-04T15:59:06.292Z,57.23
2018-09-04T16:01:35.388Z,57.58
2018-09-04T16:04:04.523Z,57.20
2018-09-04T16:06:33.651Z,57.79
2018-09-04T16:09:13.439Z,57.53
2018-09-04T16:11:44.685Z,58.04
2018-09-04T16:14:14.116Z,58.16
2018-09-04T16:16:43.363Z,57.94
2018-09-04T16:19:13.355Z,58.61
2018-09-04T16:21:42.545Z,58.29
2018-09-04T16:29:36.588Z,57.76
2018-09-04T16:32:06.598Z,57.89
2018-09-04T16:34:35.874Z,57.77
2018-09-04T16:37:06.068Z,57.85
2018-09-04T16:39:35.195Z,57.72
2018-09-04T16:42:04.371Z,57.31
2018-09-04T16:44:33.441Z,57.25
2018-09-04T16:47:02.519Z,57.43
2018-09-04T16:49:31.914Z,57.09
2018-09-04T16:52:05.845Z,56.70
2018-09-04T16:54:35.045Z,56.93
2018-09-04T16:57:04.885Z,56.71
2018-09-04T16:59:33.943Z,57.23
2018-09-04T17:02:03.002Z,57.30
2018-09-04T17:04:32.404Z,57.16
2018-09-04T17:07:01.405Z,57.06
2018-09-04T17:09:30.487Z,57.04
2018-09-04T17:11:59.861Z,57.05
2018-09-04T17:14:28.876Z,57.42
2018-09-04T17:16:58.487Z,57.29
2018-09-04T17:19:28.851Z,57.32
2018-09-04T17:21:58.399Z,57.39
2018-09-04T17:24:27.559Z,57.89
2018-09-04T17:26:56.652Z,57.68
2018-09-04T17:29:26.393Z,57.67
2018-09-04T17:31:55.528Z,58.43
2018-09-04T17:34:24.586Z,58.40
2018-09-04T17:36:53.804Z,58.41
2018-09-04T17:39:22.871Z,58.12
2018-09-04T17:41:51.940Z,58.28
2018-09-04T17:44:23.121Z,58.62
2018-09-04T17:46:53.079Z,58.47
2018-09-04T17:49:22.277Z,58.81
2018-09-04T17:51:51.389Z,59.17
2018-09-04T17:54:20.455Z,59.07
2018-09-04T17:56:49.588Z,59.51
2018-09-04T17:59:18.723Z,59.67
2018-09-04T18:01:47.793Z,59.93
2018-09-04T18:04:16.893Z,59.79
2018-09-04T18:06:47.118Z,60.09
2018-09-04T18:09:20.164Z,60.08
2018-09-04T18:11:49.280Z,60.19
2018-09-04T18:14:18.434Z,60.08
2018-09-04T18:16:47.553Z,60.21
2018-09-04T18:19:16.918Z,60.66
2018-09-04T18:21:46.213Z,60.91
2018-09-04T18:24:16.018Z,60.63
2018-09-04T18:26:45.192Z,60.74
2018-09-04T18:29:14.357Z,60.83
2018-09-04T18:31:43.510Z,61.43
2018-09-04T18:34:13.918Z,61.29
2018-09-04T18:36:43.702Z,61.79
2018-09-04T18:39:12.737Z,61.95
2018-09-04T18:41:41.864Z,62.05
2018-09-04T18:44:11.131Z,62.21
2018-09-04T18:49:17.216Z,62.09
2018-09-04T18:51:46.360Z,62.81
2018-09-04T18:54:16.295Z,62.98
2018-09-04T18:56:45.491Z,62.76
2018-09-04T18:59:14.661Z,63.17
2018-09-04T19:01:43.825Z,63.17
2018-09-04T19:04:12.891Z,63.26
2018-09-04T19:06:46.174Z,63.62
2018-09-04T19:09:15.259Z,63.64
2018-09-04T19:11:44.498Z,63.91
2018-09-04T19:14:13.643Z,64.06
2018-09-04T19:16:42.791Z,64.13
2018-09-04T19:19:11.905Z,64.23
2018-09-04T19:21:41.069Z,64.26
2018-09-04T19:24:10.414Z,64.42
2018-09-04T19:26:39.448Z,64.53
2018-09-04T19:29:08.521Z,64.57
2018-09-04T19:31:38.034Z,64.67
2018-09-04T19:34:07.376Z,64.80
2018-09-04T19:36:36.561Z,64.84
2018-09-04T19:39:07.027Z,64.89
2018-09-04T19:41:36.454Z,65.00
2018-09-04T19:44:05.569Z,64.96
2018-09-04T19:46:34.603Z,64.91
2018-09-04T19:49:03.804Z,65.02
2018-09-04T19:51:32.936Z,65.04
2018-09-04T19:54:04.374Z,64.94
2018-09-04T19:56:35.705Z,64.94
2018-09-04T19:59:05.693Z,64.97
2018-09-04T20:01:36.255Z,64.84
2018-09-04T20:04:05.481Z,64.82
2018-09-04T20:06:34.757Z,64.87
2018-09-04T20:09:04.210Z,64.99
2018-09-04T20:11:33.558Z,65.17
2018-09-04T20:14:02.676Z,65.35
2018-09-04T20:16:32.053Z,65.59
2018-09-04T20:19:01.225Z,65.71
2018-09-04T20:21:30.320Z,66.01
2018-09-04T20:23:59.424Z,65.96
2018-09-04T20:26:28.592Z,66.01
2018-09-04T20:28:57.695Z,66.12
2018-09-04T20:31:26.744Z,65.92
2018-09-04T20:33:55.984Z,66.10
2018-09-04T20:36:25.095Z,66.00
2018-09-04T20:38:54.739Z,65.92
2018-09-04T20:41:24.024Z,65.95
2018-09-04T20:43:53.297Z,65.82
2018-09-04T20:46:23.340Z,66.13
2018-09-04T20:48:53.037Z,66.31
2018-09-04T20:51:22.049Z,66.50
2018-09-04T20:53:51.194Z,66.56
2018-09-04T20:56:20.273Z,66.55
2018-09-04T20:59:02.171Z,66.58
2018-09-04T21:01:42.199Z,66.65
2018-09-04T21:04:54.705Z,66.72
2018-09-04T21:08:41.923Z,66.63
2018-09-04T21:11:11.111Z,66.39
2018-09-04T21:13:40.245Z,66.36
2018-09-04T21:16:09.386Z,66.27
2018-09-04T21:18:38.532Z,66.20
2018-09-04T21:21:07.880Z,66.25
2018-09-04T21:23:36.987Z,66.28
2018-09-04T21:26:07.087Z,66.42
2018-09-04T21:28:36.985Z,66.53
2018-09-04T21:31:06.161Z,66.73
2018-09-04T21:33:35.342Z,66.79
2018-09-04T21:36:04.562Z,66.76
2018-09-04T21:41:26.838Z,67.02
2018-09-04T21:44:00.023Z,67.17
2018-09-04T21:46:29.102Z,67.40
2018-09-04T21:48:58.556Z,67.33
2018-09-04T21:51:27.766Z,67.36
2018-09-04T21:53:57.105Z,67.24
2018-09-04T21:56:26.265Z,67.16
2018-09-04T21:58:55.389Z,67.19
2018-09-04T22:01:25.892Z,67.09
2018-09-04T22:03:55.077Z,67.23
2018-09-04T22:06:24.177Z,67.13
2018-09-04T22:08:54.325Z,67.19
2018-09-04T22:11:23.456Z,67.18
2018-09-04T22:13:52.580Z,67.19
2018-09-04T22:16:22.565Z,66.97
2018-09-04T22:19:08.865Z,67.01
2018-09-04T22:21:56.215Z,67.01
2018-09-04T22:24:29.753Z,67.07
2018-09-04T22:26:59.965Z,67.04
2018-09-04T22:29:42.236Z,67.01
2018-09-04T22:32:28.045Z,66.83
2018-09-04T22:35:14.676Z,66.79
2018-09-04T22:38:02.331Z,66.70
2018-09-04T22:40:43.841Z,66.52
2018-09-04T22:43:28.349Z,66.73
2018-09-04T22:45:57.837Z,66.63
2018-09-04T22:48:27.437Z,66.63
2018-09-04T22:51:45.001Z,66.73
2018-09-04T22:54:14.500Z,66.44
2018-09-04T22:56:58.906Z,66.50
2018-09-04T22:59:29.052Z,66.56
2018-09-04T23:01:58.261Z,66.47
2018-09-04T23:05:20.691Z,66.34
2018-09-04T23:08:03.437Z,66.56
2018-09-04T23:10:51.532Z,66.51
2018-09-04T23:13:20.590Z,66.66
2018-09-04T23:15:50.032Z,66.77
2018-09-04T23:18:19.191Z,66.95
2018-09-04T23:20:48.257Z,67.08
2018-09-04T23:23:17.321Z,67.24
2018-09-04T23:25:46.417Z,67.17
2018-09-04T23:28:15.485Z,67.17
2018-09-04T23:30:44.674Z,67.25
2018-09-04T23:33:13.889Z,67.47
2018-09-04T23:35:44.335Z,67.41
2018-09-04T23:38:13.398Z,67.58
2018-09-04T23:40:42.451Z,67.63
2018-09-04T23:43:11.577Z,67.64
2018-09-04T23:45:40.671Z,67.64
2018-09-04T23:48:13.568Z,67.55
2018-09-04T23:50:42.961Z,67.72
2018-09-04T23:53:12.054Z,67.79
2018-09-04T23:55:41.142Z,67.98
2018-09-04T23:58:10.240Z,67.97
